CheckWX is a tool to help pilots better visualize weather data.  It is not intended as a substitute for an official pre-flight weather briefing.

22:40:30 UTC

LKPR METAR
Ruzyně International Airport
Prague, Czech Republic
Current

11 mins ago

LKPR 202230Z 21011KT CAVOK 24/13 Q1015 NOSIG
Observed
Jul-20 @ 22:30 UTC
Wind
  • 210° at 11 KTS
Visibility
10,000+ meters
Flight Rules
VFR
Cloud Levels
  • Clear skies
Temperature
24°C / 75°F
Dewpoint
13°C / 55°F
Humidity
50%
Altimeter
29.97" Hg
Pressure
1014.92 hPa
Previous

41 mins ago

LKPR 202200Z 20009KT CAVOK 24/13 Q1015 NOSIG
Observed
Jul-20 @ 22:00 UTC
Wind
  • 200° at 9 KTS
Visibility
10,000+ meters
Flight Rules
VFR
Cloud Levels
  • Clear skies
Temperature
24°C / 75°F
Dewpoint
13°C / 55°F
Humidity
50%
Altimeter
29.97" Hg
Pressure
1014.92 hPa
Previous

1 hour ago

LKPR 202130Z 20008KT 160V220 CAVOK 23/13 Q1015 NOSIG
Observed
Jul-20 @ 21:30 UTC
Wind
  • 200° at 8 KTS
Visibility
10,000+ meters
Flight Rules
VFR
Cloud Levels
  • Clear skies
Temperature
23°C / 73°F
Dewpoint
13°C / 55°F
Humidity
53%
Altimeter
29.97" Hg
Pressure
1014.92 hPa